createdAt,value
2019-01-11T00:01:35.405Z,0.70
2019-01-11T00:04:03.271Z,0.70
2019-01-11T00:06:31.084Z,0.70
2019-01-11T00:08:58.779Z,0.60
2019-01-11T00:11:26.457Z,0.70
2019-01-11T00:13:54.214Z,0.60
2019-01-11T00:16:21.909Z,0.60
2019-01-11T00:18:49.593Z,0.60
2019-01-11T00:21:17.832Z,0.60
2019-01-11T00:23:45.534Z,0.60
2019-01-11T00:26:13.242Z,0.50
2019-01-11T00:28:40.981Z,0.50
2019-01-11T00:31:08.665Z,0.50
2019-01-11T00:33:36.667Z,0.40
2019-01-11T00:36:04.491Z,0.40
2019-01-11T00:38:32.146Z,0.40
2019-01-11T00:40:59.886Z,0.50
2019-01-11T00:43:27.719Z,0.50
2019-01-11T00:45:55.405Z,0.40
2019-01-11T00:48:23.109Z,0.50
2019-01-11T00:50:51.057Z,0.50
2019-01-11T00:53:18.740Z,0.50
2019-01-11T00:55:46.449Z,0.50
2019-01-11T00:58:14.446Z,0.40
2019-01-11T01:00:42.139Z,0.40
2019-01-11T01:03:09.956Z,0.30
2019-01-11T01:05:37.994Z,0.30
2019-01-11T01:08:05.940Z,0.30
2019-01-11T01:10:33.590Z,0.30
2019-01-11T01:13:01.325Z,0.30
2019-01-11T01:15:29.011Z,0.30
2019-01-11T01:17:56.697Z,0.30
2019-01-11T01:20:24.511Z,0.20
2019-01-11T01:22:52.217Z,0.30
2019-01-11T01:25:19.892Z,0.40
2019-01-11T01:27:47.613Z,0.40
2019-01-11T01:30:16.370Z,0.30
2019-01-11T01:32:44.073Z,0.30
2019-01-11T01:35:11.774Z,0.20
2019-01-11T01:37:39.783Z,0.30
2019-01-11T01:40:11.909Z,0.30
2019-01-11T01:42:41.841Z,0.40
2019-01-11T01:45:11.465Z,0.40
2019-01-11T01:47:40.973Z,0.30
2019-01-11T01:50:09.482Z,0.30
2019-01-11T01:52:37.162Z,0.30
2019-01-11T01:55:05.617Z,0.30
2019-01-11T01:57:33.322Z,0.20
2019-01-11T02:00:01.008Z,0.20
2019-01-11T02:02:28.714Z,0.20
2019-01-11T02:04:56.452Z,0.30
2019-01-11T02:07:24.177Z,0.30
2019-01-11T02:09:51.913Z,0.20
2019-01-11T02:12:19.654Z,0.20
2019-01-11T02:14:47.357Z,0.30
2019-01-11T02:17:15.646Z,0.30
2019-01-11T02:19:43.366Z,0.20
2019-01-11T02:22:11.298Z,0.20
2019-01-11T02:24:38.998Z,0.20
2019-01-11T02:27:06.735Z,0.20
2019-01-11T02:29:34.426Z,0.20
2019-01-11T02:32:02.128Z,0.20
2019-01-11T02:34:29.849Z,0.10
2019-01-11T02:36:57.551Z,0.10
2019-01-11T02:39:25.241Z,0.10
2019-01-11T02:41:52.946Z,0.20
2019-01-11T02:44:20.638Z,0.10
2019-01-11T02:46:48.347Z,0.10
2019-01-11T02:49:16.064Z,0.10
2019-01-11T02:51:43.875Z,0.10
2019-01-11T02:54:11.561Z,0.10
2019-01-11T02:56:39.284Z,0.10
2019-01-11T02:59:06.977Z,0.10
2019-01-11T03:01:34.659Z,0.00
2019-01-11T03:04:02.406Z,0.00
2019-01-11T03:06:30.095Z,-0.10
2019-01-11T03:08:57.771Z,-0.10
2019-01-11T03:11:25.579Z,-0.10
2019-01-11T03:13:53.265Z,-0.20
2019-01-11T03:16:20.993Z,-0.20
2019-01-11T03:18:48.993Z,-0.20
2019-01-11T03:21:16.687Z,-0.20
2019-01-11T03:23:46.178Z,-0.20
2019-01-11T03:26:13.906Z,-0.20
2019-01-11T03:28:41.617Z,-0.30
2019-01-11T03:31:16.695Z,-0.30
2019-01-11T03:33:44.390Z,-0.30
2019-01-11T03:36:12.075Z,-0.40
2019-01-11T03:38:39.823Z,-0.50
2019-01-11T03:41:07.529Z,-0.50
2019-01-11T03:43:35.213Z,-0.60
2019-01-11T03:46:02.960Z,-0.60
2019-01-11T03:48:30.630Z,-0.60
2019-01-11T03:50:58.317Z,-0.60
2019-01-11T03:53:26.177Z,-0.60
2019-01-11T03:55:53.858Z,-0.60
2019-01-11T03:58:21.554Z,-0.60
2019-01-11T04:00:49.276Z,-0.60
2019-01-11T04:03:17.113Z,-0.60
2019-01-11T04:05:44.827Z,-0.60
2019-01-11T04:08:12.778Z,-0.50
2019-01-11T04:10:40.459Z,-0.60
2019-01-11T04:13:08.254Z,-0.60
2019-01-11T04:15:36.018Z,-0.50
2019-01-11T04:18:20.677Z,-0.50
2019-01-11T04:20:51.314Z,-0.40
2019-01-11T04:23:19.090Z,-0.50
2019-01-11T04:25:47.291Z,-0.60
2019-01-11T04:28:15.065Z,-0.60
2019-01-11T04:30:42.737Z,-0.60
2019-01-11T04:33:10.426Z,-0.70
2019-01-11T04:35:38.410Z,-0.70
2019-01-11T04:38:06.103Z,-0.80
2019-01-11T04:40:34.305Z,-0.80
2019-01-11T04:43:02.262Z,-0.80
2019-01-11T04:45:29.951Z,-0.80
2019-01-11T04:47:57.649Z,-0.80
2019-01-11T04:50:25.395Z,-0.90
2019-01-11T04:52:53.092Z,-0.90
2019-01-11T04:55:20.790Z,-0.80
2019-01-11T04:57:48.487Z,-0.80
2019-01-11T05:00:18.369Z,-0.70
2019-01-11T05:02:46.045Z,-0.70
2019-01-11T05:05:13.787Z,-0.70
2019-01-11T05:07:41.499Z,-0.70
2019-01-11T05:10:10.226Z,-0.80
2019-01-11T05:12:37.940Z,-0.70
2019-01-11T05:15:05.769Z,-0.70
2019-01-11T05:17:33.456Z,-0.70
2019-01-11T05:20:01.194Z,-0.70
2019-01-11T05:22:28.891Z,-0.70
2019-01-11T05:24:56.582Z,-0.80
2019-01-11T05:27:24.373Z,-0.80
2019-01-11T05:29:52.130Z,-0.80
2019-01-11T05:32:19.814Z,-0.80
2019-01-11T05:34:47.541Z,-0.80
2019-01-11T05:37:15.226Z,-0.80
2019-01-11T05:39:42.931Z,-0.90
2019-01-11T05:42:10.649Z,-0.90
2019-01-11T05:44:38.350Z,-1.00
2019-01-11T05:47:06.056Z,-1.00
2019-01-11T05:49:33.765Z,-1.00
2019-01-11T05:52:01.558Z,-1.00
2019-01-11T05:54:29.246Z,-1.00
2019-01-11T05:56:56.953Z,-1.00
2019-01-11T05:59:24.699Z,-1.00
2019-01-11T06:01:52.405Z,-0.90
2019-01-11T06:04:48.678Z,-0.90
2019-01-11T06:07:28.034Z,-0.80
2019-01-11T06:09:55.751Z,-0.80
2019-01-11T06:12:23.442Z,-0.80
2019-01-11T06:14:51.128Z,-0.80
2019-01-11T06:17:18.922Z,-0.90
2019-01-11T06:19:46.606Z,-0.90
2019-01-11T06:22:14.304Z,-0.90
2019-01-11T06:24:42.039Z,-0.90
2019-01-11T06:27:09.746Z,-0.90
2019-01-11T06:29:37.543Z,-0.90
2019-01-11T06:32:05.558Z,-0.90
2019-01-11T06:34:33.334Z,-0.80
2019-01-11T06:37:01.002Z,-0.80
2019-01-11T06:39:28.706Z,-0.80
2019-01-11T06:42:03.013Z,-0.90
2019-01-11T06:44:30.774Z,-0.90
2019-01-11T06:46:58.474Z,-0.90
2019-01-11T06:49:26.227Z,-0.90
2019-01-11T06:51:53.946Z,-0.90
2019-01-11T06:54:21.625Z,-0.90
2019-01-11T06:56:49.326Z,-1.00
2019-01-11T06:59:17.055Z,-1.00
2019-01-11T07:01:44.762Z,-1.00
2019-01-11T07:04:12.473Z,-1.00
2019-01-11T07:06:40.225Z,-1.00
2019-01-11T07:09:08.680Z,-1.00
2019-01-11T07:11:36.488Z,-0.90
2019-01-11T07:14:04.318Z,-0.90
2019-01-11T07:16:31.997Z,-0.90
2019-01-11T07:18:59.753Z,-0.80
2019-01-11T07:21:27.520Z,-0.70
2019-01-11T07:23:55.170Z,-0.60
2019-01-11T07:26:22.866Z,-0.60
2019-01-11T07:28:50.585Z,-0.50
2019-01-11T07:31:21.527Z,-0.50
2019-01-11T07:33:49.201Z,-0.40
2019-01-11T07:36:31.011Z,-0.30
2019-01-11T07:38:58.695Z,-0.30
2019-01-11T07:41:26.370Z,-0.20
2019-01-11T07:43:54.110Z,-0.20
2019-01-11T07:46:21.798Z,-0.20
2019-01-11T07:48:49.485Z,-0.10
2019-01-11T07:51:17.252Z,0.00
2019-01-11T07:53:44.955Z,0.10
2019-01-11T07:56:12.641Z,0.10
2019-01-11T07:58:40.362Z,0.10
2019-01-11T08:01:08.044Z,0.20
2019-01-11T08:03:35.744Z,0.30
2019-01-11T08:06:03.590Z,0.40
2019-01-11T08:08:31.278Z,0.50
2019-01-11T08:10:58.966Z,0.50
2019-01-11T08:13:26.674Z,0.60
2019-01-11T08:15:54.349Z,0.70
2019-01-11T08:18:22.257Z,0.80
2019-01-11T08:20:56.189Z,0.90
2019-01-11T08:23:19.941Z,1.00
2019-01-11T08:25:47.678Z,1.20
2019-01-11T08:28:15.496Z,1.30
2019-01-11T08:30:43.188Z,1.40
2019-01-11T08:33:10.876Z,1.40
2019-01-11T08:35:38.610Z,1.40
2019-01-11T08:38:06.311Z,1.40
2019-01-11T08:40:34.078Z,1.50
2019-01-11T08:43:01.863Z,1.60
2019-01-11T08:45:29.542Z,1.70
2019-01-11T08:47:57.260Z,1.80
2019-01-11T08:50:25.002Z,1.90
2019-01-11T08:52:52.710Z,2.00
2019-01-11T08:55:20.434Z,2.20
2019-01-11T08:57:48.178Z,2.30
2019-01-11T09:00:15.948Z,2.40
2019-01-11T09:02:43.657Z,2.40
2019-01-11T09:05:11.418Z,2.50
2019-01-11T09:07:39.225Z,2.50
2019-01-11T09:10:08.395Z,2.50
2019-01-11T09:12:36.130Z,2.60
2019-01-11T09:15:04.877Z,2.60
2019-01-11T09:17:34.465Z,2.60
2019-01-11T09:20:02.276Z,2.70
2019-01-11T09:22:30.043Z,2.60
2019-01-11T09:24:57.737Z,2.70
2019-01-11T09:27:25.467Z,2.70
2019-01-11T09:29:53.146Z,2.80
2019-01-11T09:32:20.848Z,2.90
2019-01-11T09:34:48.574Z,3.00
2019-01-11T09:37:16.266Z,3.00
2019-01-11T09:39:43.973Z,3.00
2019-01-11T09:42:12.002Z,3.00
2019-01-11T09:44:39.703Z,3.10
2019-01-11T09:47:07.385Z,3.20
2019-01-11T09:49:35.154Z,3.30
2019-01-11T09:52:02.848Z,3.30
2019-01-11T09:54:30.526Z,3.50
2019-01-11T09:56:58.297Z,3.60
2019-01-11T09:59:25.988Z,3.60
2019-01-11T10:02:24.960Z,3.70
2019-01-11T10:04:52.693Z,3.90
2019-01-11T10:07:30.498Z,4.10
2019-01-11T10:09:58.117Z,4.10
2019-01-11T10:12:25.897Z,4.20
2019-01-11T10:14:53.609Z,4.20
2019-01-11T10:17:21.299Z,4.20
2019-01-11T10:19:48.974Z,4.20
2019-01-11T10:22:16.935Z,4.10
2019-01-11T10:24:44.753Z,4.20
2019-01-11T10:27:12.438Z,4.30
2019-01-11T10:29:40.190Z,4.30
2019-01-11T10:32:07.896Z,4.30
2019-01-11T10:34:35.618Z,4.40
2019-01-11T10:37:03.635Z,4.40
2019-01-11T10:39:31.375Z,4.50
2019-01-11T10:41:59.054Z,4.50
2019-01-11T10:44:26.782Z,4.60
2019-01-11T10:46:54.473Z,4.70
2019-01-11T10:49:22.157Z,4.60
2019-01-11T10:51:49.901Z,4.60
2019-01-11T10:54:29.005Z,4.50
2019-01-11T10:56:56.766Z,4.60
2019-01-11T10:59:24.467Z,4.60
2019-01-11T11:01:52.153Z,4.50
2019-01-11T11:04:19.878Z,4.40
2019-01-11T11:06:47.604Z,4.30
2019-01-11T11:09:15.303Z,4.40
2019-01-11T11:11:43.037Z,4.60
2019-01-11T11:14:10.730Z,4.90
2019-01-11T11:16:38.412Z,4.80
2019-01-11T11:19:06.134Z,4.90
2019-01-11T11:21:34.821Z,5.10
2019-01-11T11:24:02.654Z,4.90
2019-01-11T11:26:43.143Z,4.80
2019-01-11T11:29:10.831Z,4.90
2019-01-11T11:31:38.538Z,5.00
2019-01-11T11:34:06.243Z,5.10
2019-01-11T11:36:34.797Z,4.80
2019-01-11T11:39:03.809Z,4.80
2019-01-11T11:41:31.607Z,5.00
2019-01-11T11:43:59.290Z,5.10
2019-01-11T11:46:26.978Z,5.00
2019-01-11T11:48:54.784Z,5.10
2019-01-11T11:51:22.483Z,5.10
2019-01-11T11:53:50.189Z,5.30
2019-01-11T11:56:17.910Z,5.50
2019-01-11T11:58:45.597Z,5.60
2019-01-11T12:01:13.306Z,5.60
2019-01-11T12:03:41.040Z,5.30
2019-01-11T12:06:08.754Z,5.10
2019-01-11T12:08:36.430Z,4.90
2019-01-11T12:11:04.174Z,5.00
2019-01-11T12:13:34.605Z,5.10
2019-01-11T12:16:01.457Z,4.90
2019-01-11T12:18:29.196Z,5.10
2019-01-11T12:20:56.902Z,5.20
2019-01-11T12:23:24.617Z,5.30
2019-01-11T12:25:52.375Z,5.40
2019-01-11T12:28:20.442Z,5.40
2019-01-11T12:30:48.099Z,5.50
2019-01-11T12:33:15.824Z,5.50
2019-01-11T12:35:43.509Z,5.30
2019-01-11T12:38:13.829Z,5.30
2019-01-11T12:40:40.722Z,5.00
2019-01-11T12:43:08.405Z,4.80
2019-01-11T12:45:36.093Z,4.80
2019-01-11T12:48:03.844Z,4.70
2019-01-11T12:50:35.961Z,4.80
2019-01-11T12:53:03.667Z,4.80
2019-01-11T12:55:31.658Z,4.70
2019-01-11T12:57:59.341Z,4.80
2019-01-11T13:00:27.152Z,4.80
2019-01-11T13:02:54.902Z,4.80
2019-01-11T13:05:22.595Z,4.80
2019-01-11T13:07:50.284Z,4.90
2019-01-11T13:10:18.969Z,4.80
2019-01-11T13:12:46.648Z,5.00
2019-01-11T13:15:16.431Z,5.20
2019-01-11T13:17:44.161Z,5.10
2019-01-11T13:20:13.190Z,5.10
2019-01-11T13:22:40.905Z,5.10
2019-01-11T13:25:08.897Z,5.10
2019-01-11T13:27:36.659Z,5.00
2019-01-11T13:30:06.401Z,5.00
2019-01-11T13:32:34.167Z,5.00
2019-01-11T13:35:01.911Z,5.10
2019-01-11T13:37:29.584Z,5.10
2019-01-11T13:39:57.330Z,5.10
2019-01-11T13:42:25.018Z,5.10
2019-01-11T13:44:52.713Z,5.10
2019-01-11T13:47:20.442Z,5.20
2019-01-11T13:49:48.125Z,5.20
2019-01-11T13:52:15.856Z,5.20
2019-01-11T13:54:44.426Z,5.20
2019-01-11T13:57:12.502Z,5.30
2019-01-11T13:59:41.611Z,5.30
2019-01-11T14:02:09.529Z,5.40
2019-01-11T14:04:37.225Z,5.40
2019-01-11T14:07:05.031Z,5.50
2019-01-11T14:09:32.886Z,5.40
2019-01-11T14:12:00.673Z,5.40
2019-01-11T14:14:28.325Z,5.20
2019-01-11T14:16:56.058Z,5.10
2019-01-11T14:19:23.745Z,4.90
2019-01-11T14:21:51.436Z,4.90
2019-01-11T14:24:19.155Z,4.80
2019-01-11T14:26:46.849Z,5.00
2019-01-11T14:29:14.538Z,5.10
2019-01-11T14:31:42.328Z,5.20
2019-01-11T14:34:10.026Z,5.30
2019-01-11T14:36:37.721Z,5.50
2019-01-11T14:39:08.068Z,5.70
2019-01-11T14:41:36.059Z,5.80
2019-01-11T14:44:04.000Z,6.00
2019-01-11T14:46:31.806Z,6.10
2019-01-11T14:48:59.506Z,6.20
2019-01-11T14:51:27.204Z,6.30
2019-01-11T14:53:54.953Z,6.30
2019-01-11T14:56:22.650Z,6.50
2019-01-11T14:58:50.341Z,6.50
2019-01-11T15:01:18.075Z,6.40
2019-01-11T15:03:45.766Z,6.30
2019-01-11T15:06:13.445Z,6.30
2019-01-11T15:08:41.192Z,6.20
2019-01-11T15:11:08.871Z,6.10
2019-01-11T15:13:36.563Z,6.10
2019-01-11T15:16:04.346Z,6.20
2019-01-11T15:18:32.252Z,6.20
2019-01-11T15:20:59.943Z,6.10
2019-01-11T15:23:27.691Z,6.00
2019-01-11T15:25:55.386Z,6.00
2019-01-11T15:28:23.082Z,5.90
2019-01-11T15:30:50.809Z,5.80
2019-01-11T15:33:18.649Z,5.60
2019-01-11T15:35:46.361Z,5.50
2019-01-11T15:38:14.231Z,5.40
2019-01-11T15:40:41.933Z,5.30
2019-01-11T15:43:09.654Z,5.20
2019-01-11T15:45:37.431Z,5.20
2019-01-11T15:48:05.174Z,5.20
2019-01-11T15:50:58.189Z,5.20
2019-01-11T15:53:45.282Z,5.10
2019-01-11T15:56:13.122Z,5.00
2019-01-11T15:58:40.813Z,5.00
2019-01-11T16:01:08.512Z,5.00
2019-01-11T16:03:36.218Z,4.90
2019-01-11T16:06:36.333Z,4.80
2019-01-11T16:09:16.677Z,4.70
2019-01-11T16:11:47.769Z,4.70
2019-01-11T16:14:49.387Z,4.70
2019-01-11T16:17:17.522Z,4.60
2019-01-11T16:19:45.211Z,4.60
2019-01-11T16:22:12.918Z,4.50
2019-01-11T16:24:40.611Z,4.50
2019-01-11T16:27:08.361Z,4.40
2019-01-11T16:29:36.105Z,4.40
2019-01-11T16:32:03.834Z,4.40
2019-01-11T16:34:31.817Z,4.40
2019-01-11T16:36:59.539Z,4.30
2019-01-11T16:39:27.251Z,4.30
2019-01-11T16:41:54.949Z,4.30
2019-01-11T16:44:22.718Z,4.30
2019-01-11T16:46:50.443Z,4.30
2019-01-11T16:49:18.148Z,4.40
2019-01-11T16:51:45.936Z,4.40
2019-01-11T16:54:13.674Z,4.30
2019-01-11T16:56:41.379Z,4.30
2019-01-11T16:59:09.126Z,4.30
2019-01-11T17:01:36.832Z,4.30
2019-01-11T17:04:04.584Z,4.30
2019-01-11T17:06:32.616Z,4.40
2019-01-11T17:09:00.553Z,4.40
2019-01-11T17:11:28.263Z,4.50
2019-01-11T17:13:55.981Z,4.50
2019-01-11T17:16:23.698Z,4.50
2019-01-11T17:18:51.402Z,4.50
2019-01-11T17:21:19.134Z,4.50
2019-01-11T17:23:46.875Z,4.50
2019-01-11T17:26:14.610Z,4.50
2019-01-11T17:28:42.338Z,4.50
2019-01-11T17:31:10.009Z,4.50
2019-01-11T17:33:37.690Z,4.50
2019-01-11T17:36:05.529Z,4.50
2019-01-11T17:38:33.213Z,4.50
2019-01-11T17:41:01.118Z,4.40
2019-01-11T17:43:28.828Z,4.40
2019-01-11T17:45:56.514Z,4.30
2019-01-11T17:48:24.201Z,4.30
2019-01-11T17:50:51.941Z,4.40
2019-01-11T17:53:19.635Z,4.40
2019-01-11T17:55:47.330Z,4.40
2019-01-11T17:58:15.052Z,4.40
2019-01-11T18:00:43.142Z,4.40
2019-01-11T18:03:10.818Z,4.50
2019-01-11T18:05:38.533Z,4.50
2019-01-11T18:08:06.217Z,4.50
2019-01-11T18:10:33.942Z,4.50
2019-01-11T18:13:01.986Z,4.50
2019-01-11T18:15:29.705Z,4.50
2019-01-11T18:17:57.413Z,4.50
2019-01-11T18:20:27.386Z,4.60
2019-01-11T18:22:55.109Z,4.50
2019-01-11T18:25:22.798Z,4.60
2019-01-11T18:27:50.526Z,4.50
2019-01-11T18:30:18.238Z,4.50
2019-01-11T18:32:45.954Z,4.50
2019-01-11T18:35:13.686Z,4.50
2019-01-11T18:37:41.633Z,4.50
2019-01-11T18:40:12.575Z,4.50
2019-01-11T18:42:40.317Z,4.50
2019-01-11T18:45:08.015Z,4.40
2019-01-11T18:47:35.691Z,4.40
2019-01-11T18:50:04.875Z,4.40
2019-01-11T18:52:32.610Z,4.40
2019-01-11T18:55:01.189Z,4.40
2019-01-11T18:57:29.163Z,4.40
2019-01-11T18:59:56.836Z,4.40
2019-01-11T19:02:24.547Z,4.50
2019-01-11T19:04:52.269Z,4.50
2019-01-11T19:07:19.998Z,4.50
2019-01-11T19:09:47.679Z,4.50
2019-01-11T19:12:15.670Z,4.50
2019-01-11T19:14:43.358Z,4.50
2019-01-11T19:17:11.039Z,4.50
2019-01-11T19:19:38.763Z,4.50
2019-01-11T19:22:06.449Z,4.50
2019-01-11T19:24:34.154Z,4.50
2019-01-11T19:27:01.943Z,4.50
2019-01-11T19:29:29.639Z,4.50
2019-01-11T19:31:57.330Z,4.50
2019-01-11T19:34:25.066Z,4.40
2019-01-11T19:36:52.745Z,4.40
2019-01-11T19:39:20.617Z,4.40
2019-01-11T19:41:48.331Z,4.30
2019-01-11T19:44:16.006Z,4.20
2019-01-11T19:46:43.712Z,4.20
2019-01-11T19:49:11.477Z,4.20
2019-01-11T19:51:39.157Z,4.20
2019-01-11T19:54:06.866Z,4.20
2019-01-11T19:56:34.808Z,4.20
2019-01-11T19:59:02.581Z,4.20
2019-01-11T20:01:30.356Z,4.20
2019-01-11T20:03:58.091Z,4.20
2019-01-11T20:06:25.804Z,4.30
2019-01-11T20:08:53.488Z,4.30
2019-01-11T20:11:21.361Z,4.30
2019-01-11T20:13:49.034Z,4.30
2019-01-11T20:16:16.841Z,4.30
2019-01-11T20:19:03.978Z,4.20
2019-01-11T20:21:31.719Z,4.20
2019-01-11T20:23:59.617Z,4.30
2019-01-11T20:26:27.322Z,4.30
2019-01-11T20:28:55.021Z,4.20
2019-01-11T20:31:22.714Z,4.20
2019-01-11T20:33:50.646Z,4.20
2019-01-11T20:36:18.337Z,4.20
2019-01-11T20:38:46.014Z,4.20
2019-01-11T20:41:14.021Z,4.30
2019-01-11T20:43:41.746Z,4.30
2019-01-11T20:46:09.464Z,4.30
2019-01-11T20:48:37.189Z,4.30
2019-01-11T20:51:04.902Z,4.40
2019-01-11T20:53:41.377Z,4.40
2019-01-11T20:56:04.867Z,4.40
2019-01-11T20:58:35.522Z,4.40
2019-01-11T21:01:04.736Z,4.40
2019-01-11T21:03:35.478Z,4.40
2019-01-11T21:06:03.456Z,4.40
2019-01-11T21:08:33.990Z,4.40
2019-01-11T21:11:01.845Z,4.40
2019-01-11T21:13:29.529Z,4.40
2019-01-11T21:15:57.237Z,4.50
2019-01-11T21:18:24.966Z,4.50
2019-01-11T21:20:52.677Z,4.50
2019-01-11T21:23:20.378Z,4.50
2019-01-11T21:25:48.114Z,4.50
2019-01-11T21:28:15.799Z,4.50
2019-01-11T21:30:43.491Z,4.50
2019-01-11T21:33:11.214Z,4.50
2019-01-11T21:35:38.919Z,4.50
2019-01-11T21:38:06.622Z,4.60
2019-01-11T21:40:34.339Z,4.60
2019-01-11T21:43:02.165Z,4.60
2019-01-11T21:45:29.879Z,4.60
2019-01-11T21:47:57.746Z,4.60
2019-01-11T21:50:26.818Z,4.60
2019-01-11T21:52:54.507Z,4.60
2019-01-11T21:55:22.218Z,4.60
2019-01-11T21:57:49.959Z,4.60
2019-01-11T22:00:23.379Z,4.70
2019-01-11T22:02:51.081Z,4.70
2019-01-11T22:05:18.805Z,4.70
2019-01-11T22:07:46.535Z,4.70
2019-01-11T22:10:14.254Z,4.70
2019-01-11T22:12:41.930Z,4.70
2019-01-11T22:15:11.170Z,4.70
2019-01-11T22:17:38.979Z,4.70
2019-01-11T22:20:08.465Z,4.70
2019-01-11T22:22:36.146Z,4.70
2019-01-11T22:25:04.374Z,4.70
2019-01-11T22:27:32.078Z,4.70
2019-01-11T22:29:59.878Z,4.80
2019-01-11T22:32:28.237Z,4.80
2019-01-11T22:34:55.902Z,4.80
2019-01-11T22:37:23.585Z,4.80
2019-01-11T22:39:51.449Z,4.80
2019-01-11T22:42:19.153Z,4.90
2019-01-11T22:44:46.978Z,4.90
2019-01-11T22:47:14.695Z,4.90
2019-01-11T22:49:42.379Z,4.90
2019-01-11T22:52:10.102Z,4.90
2019-01-11T22:54:37.853Z,4.90
2019-01-11T22:57:05.573Z,4.90
2019-01-11T22:59:33.291Z,4.90
2019-01-11T23:02:15.967Z,4.90
2019-01-11T23:04:43.686Z,4.90
2019-01-11T23:07:32.050Z,4.90
2019-01-11T23:10:40.440Z,4.90
2019-01-11T23:13:11.727Z,4.90
2019-01-11T23:15:42.149Z,4.90
2019-01-11T23:18:15.117Z,4.80
2019-01-11T23:20:43.045Z,4.80
2019-01-11T23:23:10.730Z,4.80
2019-01-11T23:25:38.466Z,4.80
2019-01-11T23:28:06.158Z,4.80
2019-01-11T23:30:33.848Z,4.80
2019-01-11T23:33:01.581Z,4.80
2019-01-11T23:35:29.321Z,4.80
2019-01-11T23:37:57.046Z,4.70
2019-01-11T23:40:24.779Z,4.70
2019-01-11T23:42:52.486Z,4.70
2019-01-11T23:45:20.281Z,4.80
2019-01-11T23:47:48.002Z,4.80
2019-01-11T23:50:16.515Z,4.80
2019-01-11T23:52:44.190Z,4.80
2019-01-11T23:55:12.126Z,4.80
2019-01-11T23:57:39.809Z,4.80
